createdAt,value
2022-08-17T00:02:09.846Z,17.30
2022-08-17T00:05:29.038Z,17.31
2022-08-17T00:08:35.101Z,17.28
2022-08-17T00:11:40.586Z,17.23
2022-08-17T00:14:42.586Z,17.25
2022-08-17T00:17:47.533Z,17.28
2022-08-17T00:20:49.241Z,17.28
2022-08-17T00:23:51.165Z,17.27
2022-08-17T00:26:52.830Z,17.27
2022-08-17T00:29:54.550Z,17.29
2022-08-17T00:33:15.709Z,17.28
2022-08-17T00:36:18.476Z,17.28
2022-08-17T00:39:20.432Z,17.31
2022-08-17T00:42:24.489Z,17.35
2022-08-17T00:45:28.261Z,17.38
2022-08-17T00:48:31.044Z,17.38
2022-08-17T00:51:50.378Z,17.32
2022-08-17T00:54:54.255Z,17.29
2022-08-17T00:57:59.244Z,17.25
2022-08-17T01:01:04.290Z,17.18
2022-08-17T01:04:06.521Z,17.13
2022-08-17T01:07:10.657Z,17.10
2022-08-17T01:10:58.843Z,17.05
2022-08-17T01:13:41.443Z,17.08
2022-08-17T01:16:43.506Z,17.11
2022-08-17T01:19:45.476Z,17.13
2022-08-17T01:22:47.556Z,17.16
2022-08-17T01:25:51.024Z,17.18
2022-08-17T01:28:55.686Z,17.16
2022-08-17T01:32:01.090Z,17.10
2022-08-17T01:35:03.087Z,17.03
2022-08-17T01:38:05.437Z,17.01
2022-08-17T01:41:12.978Z,16.97
2022-08-17T01:44:16.776Z,16.89
2022-08-17T01:47:18.617Z,16.80
2022-08-17T01:50:27.811Z,16.68
2022-08-17T01:53:42.458Z,16.63
2022-08-17T01:56:47.619Z,16.52
2022-08-17T01:59:49.670Z,16.47
2022-08-17T02:02:51.573Z,16.45
2022-08-17T02:05:53.738Z,16.40
2022-08-17T02:09:02.230Z,16.44
2022-08-17T02:12:39.149Z,16.49
2022-08-17T02:15:29.294Z,16.52
2022-08-17T02:18:31.008Z,16.51
2022-08-17T02:21:34.337Z,16.27
2022-08-17T02:24:58.279Z,16.11
2022-08-17T02:28:00.169Z,15.94
2022-08-17T02:31:07.911Z,15.95
2022-08-17T02:34:09.907Z,16.01
2022-08-17T02:37:12.019Z,16.08
2022-08-17T02:40:13.849Z,16.14
2022-08-17T02:43:15.806Z,16.17
2022-08-17T02:46:17.612Z,16.21
2022-08-17T02:49:19.415Z,16.29
2022-08-17T02:52:42.413Z,16.33
2022-08-17T02:55:44.131Z,16.31
2022-08-17T02:58:46.501Z,16.31
2022-08-17T03:01:49.109Z,16.22
2022-08-17T03:04:50.987Z,16.07
2022-08-17T03:07:53.427Z,16.00
2022-08-17T03:10:55.778Z,16.01
2022-08-17T03:13:58.716Z,15.98
2022-08-17T03:17:01.386Z,15.95
2022-08-17T03:20:04.765Z,15.88
2022-08-17T03:23:07.052Z,15.82
2022-08-17T03:26:12.184Z,15.77
2022-08-17T03:29:19.329Z,15.75
2022-08-17T03:32:21.145Z,15.74
2022-08-17T03:35:26.210Z,15.77
2022-08-17T03:38:28.012Z,15.75
2022-08-17T03:41:29.926Z,15.71
2022-08-17T03:44:31.694Z,15.66
2022-08-17T03:47:52.047Z,15.65
2022-08-17T03:51:14.797Z,15.63
2022-08-17T03:54:35.571Z,15.64
2022-08-17T03:57:37.983Z,15.70
2022-08-17T04:00:40.584Z,15.72
2022-08-17T04:03:42.311Z,15.73
2022-08-17T04:06:44.606Z,15.78
2022-08-17T04:09:46.299Z,15.84
2022-08-17T04:12:52.989Z,15.90
2022-08-17T04:15:56.349Z,15.94
2022-08-17T04:18:58.098Z,15.97
2022-08-17T04:21:59.980Z,16.01
2022-08-17T04:25:15.154Z,16.07
2022-08-17T04:28:20.782Z,16.14
2022-08-17T04:31:23.049Z,16.22
2022-08-17T04:34:25.233Z,16.35
2022-08-17T04:37:27.075Z,16.48
2022-08-17T04:40:47.282Z,16.62
2022-08-17T04:43:50.142Z,16.78
2022-08-17T04:46:51.850Z,16.92
2022-08-17T04:49:54.079Z,17.06
2022-08-17T04:52:56.319Z,17.19
2022-08-17T04:55:59.332Z,17.34
2022-08-17T04:59:04.658Z,17.49
2022-08-17T05:02:06.698Z,17.64
2022-08-17T05:05:09.050Z,17.78
2022-08-17T05:08:11.281Z,17.92
2022-08-17T05:11:13.928Z,18.05
2022-08-17T05:14:15.789Z,18.17
2022-08-17T05:17:17.587Z,18.44
2022-08-17T05:20:19.799Z,18.85
2022-08-17T05:23:24.499Z,19.22
2022-08-17T05:26:28.061Z,19.53
2022-08-17T05:29:35.302Z,19.82
2022-08-17T05:32:40.305Z,20.06
2022-08-17T05:35:47.048Z,20.30
2022-08-17T05:38:48.961Z,20.49
2022-08-17T05:41:50.814Z,20.65
2022-08-17T05:44:52.736Z,20.83
2022-08-17T05:47:54.535Z,21.06
2022-08-17T05:51:05.127Z,21.28
2022-08-17T05:54:18.071Z,21.46
2022-08-17T05:57:47.659Z,21.74
2022-08-17T06:01:04.615Z,22.10
2022-08-17T06:04:26.858Z,22.24
2022-08-17T06:07:41.924Z,22.34
2022-08-17T06:10:48.649Z,22.59
2022-08-17T06:14:11.706Z,22.72
2022-08-17T06:17:16.213Z,22.65
2022-08-17T06:20:18.110Z,22.70
2022-08-17T06:23:27.034Z,22.84
2022-08-17T06:26:38.516Z,22.92
2022-08-17T06:29:51.057Z,23.04
2022-08-17T06:32:55.809Z,23.24
2022-08-17T06:36:35.371Z,23.34
2022-08-17T06:39:37.877Z,23.50
2022-08-17T06:43:07.860Z,23.68
2022-08-17T06:46:15.616Z,23.86
2022-08-17T06:49:28.691Z,24.05
2022-08-17T06:52:46.274Z,24.27
2022-08-17T06:56:13.786Z,24.44
2022-08-17T06:59:18.806Z,24.58
2022-08-17T07:02:52.122Z,24.64
2022-08-17T07:05:59.524Z,24.63
2022-08-17T07:09:14.587Z,24.72
2022-08-17T07:12:20.044Z,24.94
2022-08-17T07:15:27.619Z,24.99
2022-08-17T07:18:30.504Z,25.21
2022-08-17T07:22:00.050Z,25.34
2022-08-17T07:25:09.028Z,25.42
2022-08-17T07:28:11.170Z,25.55
2022-08-17T07:31:17.080Z,25.68
2022-08-17T07:34:19.095Z,25.96
2022-08-17T07:37:20.962Z,26.15
2022-08-17T07:40:27.246Z,26.21
2022-08-17T07:43:41.160Z,26.34
2022-08-17T07:47:11.438Z,26.40
2022-08-17T07:50:33.438Z,26.83
2022-08-17T07:53:35.761Z,27.16
2022-08-17T07:56:45.552Z,27.40
2022-08-17T08:00:03.155Z,27.56
2022-08-17T08:03:31.946Z,27.90
2022-08-17T08:06:36.398Z,28.48
2022-08-17T08:09:42.658Z,28.95
2022-08-17T08:12:52.746Z,29.30
2022-08-17T08:16:24.610Z,29.70
2022-08-17T08:19:28.374Z,29.84
2022-08-17T08:22:49.721Z,30.04
2022-08-17T08:26:17.964Z,30.32
2022-08-17T08:29:23.369Z,30.73
2022-08-17T08:32:25.033Z,31.16
2022-08-17T08:35:34.641Z,31.21
2022-08-17T08:38:48.771Z,30.89
2022-08-17T08:42:14.428Z,31.08
2022-08-17T08:45:35.987Z,31.55
2022-08-17T08:48:56.921Z,31.96
2022-08-17T08:52:02.995Z,31.72
2022-08-17T08:55:23.013Z,31.71
2022-08-17T08:58:42.093Z,31.95
2022-08-17T09:02:14.338Z,32.28
2022-08-17T09:05:34.966Z,32.65
2022-08-17T09:08:48.696Z,32.62
2022-08-17T09:12:01.397Z,32.39
2022-08-17T09:15:17.798Z,32.63
2022-08-17T09:19:03.216Z,32.35
2022-08-17T09:21:54.701Z,31.58
2022-08-17T09:25:07.199Z,30.97
2022-08-17T09:28:19.323Z,30.25
2022-08-17T09:31:46.398Z,29.64
2022-08-17T09:35:00.221Z,29.37
2022-08-17T09:38:10.164Z,29.21
2022-08-17T09:41:48.502Z,29.61
2022-08-17T09:44:53.921Z,30.73
2022-08-17T09:48:18.529Z,31.49
2022-08-17T09:51:25.520Z,31.89
2022-08-17T09:54:39.201Z,31.48
2022-08-17T09:58:21.774Z,30.92
2022-08-17T10:01:55.959Z,30.32
2022-08-17T10:05:12.775Z,29.91
2022-08-17T10:08:42.567Z,29.69
2022-08-17T10:12:20.174Z,30.35
2022-08-17T10:15:36.724Z,31.14
2022-08-17T10:18:51.345Z,31.30
2022-08-17T10:22:14.684Z,31.10
2022-08-17T10:25:57.831Z,30.75
2022-08-17T10:29:06.728Z,30.65
2022-08-17T10:32:11.811Z,31.50
2022-08-17T10:35:37.746Z,32.26
2022-08-17T10:38:49.989Z,33.06
2022-08-17T10:41:56.132Z,33.87
2022-08-17T10:45:17.708Z,34.61
2022-08-17T10:48:36.839Z,35.28
2022-08-17T10:51:40.722Z,35.56
2022-08-17T10:55:12.599Z,35.78
2022-08-17T10:58:21.991Z,35.71
2022-08-17T11:01:33.883Z,36.03
2022-08-17T11:04:57.407Z,36.23
2022-08-17T11:08:24.971Z,36.20
2022-08-17T11:11:37.203Z,36.29
2022-08-17T11:15:03.831Z,36.42
2022-08-17T11:18:31.697Z,36.53
2022-08-17T11:22:00.789Z,36.74
2022-08-17T11:25:21.208Z,36.98
2022-08-17T11:28:34.645Z,37.13
2022-08-17T11:31:42.702Z,37.04
2022-08-17T11:34:46.075Z,37.07
2022-08-17T11:37:54.263Z,36.97
2022-08-17T11:41:27.450Z,37.04
2022-08-17T11:44:42.392Z,36.75
2022-08-17T11:48:27.225Z,36.36
2022-08-17T11:51:56.805Z,36.31
2022-08-17T11:55:24.191Z,36.47
2022-08-17T11:58:46.006Z,36.76
2022-08-17T12:01:55.879Z,36.24
2022-08-17T12:05:09.794Z,35.88
2022-08-17T12:08:18.594Z,36.22
2022-08-17T12:12:11.277Z,36.37
2022-08-17T12:15:11.733Z,36.60
2022-08-17T12:18:28.084Z,36.16
2022-08-17T12:21:48.821Z,35.38
2022-08-17T12:25:14.780Z,34.88
2022-08-17T12:28:37.385Z,34.42
2022-08-17T12:31:51.213Z,33.74
2022-08-17T12:34:54.041Z,33.36
2022-08-17T12:37:59.784Z,33.65
2022-08-17T12:41:22.939Z,34.25
2022-08-17T12:44:35.922Z,34.35
2022-08-17T12:48:13.209Z,34.54
2022-08-17T12:51:15.086Z,35.10
2022-08-17T12:54:37.821Z,35.39
2022-08-17T12:57:46.549Z,35.77
2022-08-17T13:01:00.511Z,35.67
2022-08-17T13:04:03.830Z,34.76
2022-08-17T13:07:05.698Z,34.23
2022-08-17T13:10:07.818Z,34.68
2022-08-17T13:13:25.096Z,35.28
2022-08-17T13:16:28.755Z,35.82
2022-08-17T13:19:41.110Z,36.15
2022-08-17T13:22:44.527Z,35.89
2022-08-17T13:25:54.459Z,36.01
2022-08-17T13:28:56.379Z,35.88
2022-08-17T13:32:05.166Z,35.66
2022-08-17T13:35:34.471Z,35.33
2022-08-17T13:38:49.558Z,34.89
2022-08-17T13:41:53.896Z,35.40
2022-08-17T13:44:56.248Z,36.07
2022-08-17T13:48:17.051Z,36.43
2022-08-17T13:51:25.914Z,36.67
2022-08-17T13:54:36.089Z,36.69
2022-08-17T13:57:37.966Z,36.53
2022-08-17T14:00:40.850Z,36.69
2022-08-17T14:03:42.665Z,36.54
2022-08-17T14:06:54.985Z,36.37
2022-08-17T14:10:01.539Z,36.05
2022-08-17T14:13:04.052Z,35.35
2022-08-17T14:16:05.885Z,34.97
2022-08-17T14:19:16.774Z,34.93
2022-08-17T14:22:40.194Z,34.92
2022-08-17T14:25:41.895Z,35.17
2022-08-17T14:28:56.339Z,35.49
2022-08-17T14:32:04.992Z,35.66
2022-08-17T14:35:08.395Z,35.81
2022-08-17T14:38:10.074Z,36.15
2022-08-17T14:41:11.958Z,36.62
2022-08-17T14:44:14.244Z,36.93
2022-08-17T14:47:16.082Z,37.05
2022-08-17T14:50:19.713Z,36.97
2022-08-17T14:53:21.529Z,37.05
2022-08-17T14:56:24.509Z,37.24
2022-08-17T14:59:26.339Z,36.56
2022-08-17T15:02:30.013Z,36.03
2022-08-17T15:05:36.687Z,35.65
2022-08-17T15:08:38.589Z,34.67
2022-08-17T15:11:40.575Z,34.24
2022-08-17T15:14:42.449Z,33.91
2022-08-17T15:17:45.894Z,33.27
2022-08-17T15:20:50.102Z,33.24
2022-08-17T15:23:51.925Z,32.37
2022-08-17T15:26:53.712Z,31.99
2022-08-17T15:29:55.500Z,31.98
2022-08-17T15:32:59.253Z,31.39
2022-08-17T15:36:06.555Z,30.81
2022-08-17T15:39:08.300Z,30.22
2022-08-17T15:42:09.947Z,29.69
2022-08-17T15:45:13.713Z,29.48
2022-08-17T15:48:15.459Z,29.58
2022-08-17T15:51:19.310Z,29.67
2022-08-17T15:54:22.818Z,29.89
2022-08-17T15:57:26.382Z,30.07
2022-08-17T16:00:29.555Z,30.02
2022-08-17T16:04:01.480Z,29.60
2022-08-17T16:06:54.455Z,29.10
2022-08-17T16:09:56.166Z,29.05
2022-08-17T16:12:58.811Z,28.92
2022-08-17T16:16:00.948Z,28.92
2022-08-17T16:19:03.098Z,28.80
2022-08-17T16:22:07.244Z,28.53
2022-08-17T16:25:13.879Z,28.58
2022-08-17T16:28:17.057Z,28.62
2022-08-17T16:31:19.346Z,28.53
2022-08-17T16:34:21.492Z,28.46
2022-08-17T16:37:23.261Z,28.29
2022-08-17T16:40:28.957Z,28.23
2022-08-17T16:43:31.359Z,28.28
2022-08-17T16:46:33.721Z,28.22
2022-08-17T16:49:38.139Z,28.06
2022-08-17T16:52:40.546Z,27.84
2022-08-17T16:55:42.855Z,27.64
2022-08-17T16:58:45.383Z,27.56
2022-08-17T17:01:48.046Z,27.51
2022-08-17T17:04:53.887Z,27.60
2022-08-17T17:08:05.057Z,27.48
2022-08-17T17:11:13.118Z,27.43
2022-08-17T17:14:22.801Z,27.32
2022-08-17T17:17:35.899Z,27.22
2022-08-17T17:20:47.884Z,27.14
2022-08-17T17:24:01.343Z,27.20
2022-08-17T17:27:21.577Z,27.13
2022-08-17T17:30:24.377Z,26.97
2022-08-17T17:33:40.453Z,26.84
2022-08-17T17:36:48.373Z,26.60
2022-08-17T17:39:53.380Z,26.30
2022-08-17T17:43:09.289Z,26.04
2022-08-17T17:46:27.851Z,25.84
2022-08-17T17:49:39.291Z,25.57
2022-08-17T17:52:47.450Z,25.34
2022-08-17T17:56:06.929Z,25.39
2022-08-17T17:59:51.418Z,25.46
2022-08-17T18:03:21.143Z,25.36
2022-08-17T18:06:33.183Z,24.97
2022-08-17T18:10:02.623Z,24.54
2022-08-17T18:13:15.460Z,24.31
2022-08-17T18:16:19.312Z,24.13
2022-08-17T18:19:21.678Z,23.95
2022-08-17T18:22:24.249Z,23.84
2022-08-17T18:25:48.037Z,23.72
2022-08-17T18:28:51.785Z,23.62
2022-08-17T18:32:31.442Z,23.53
2022-08-17T18:35:35.217Z,23.42
2022-08-17T18:38:40.222Z,23.30
2022-08-17T18:41:45.339Z,23.02
2022-08-17T18:44:49.583Z,22.92
2022-08-17T18:47:55.462Z,22.83
2022-08-17T18:51:01.240Z,22.76
2022-08-17T18:54:08.860Z,22.71
2022-08-17T18:57:11.109Z,22.66
2022-08-17T19:00:36.403Z,22.61
2022-08-17T19:03:42.404Z,22.54
2022-08-17T19:06:44.391Z,22.53
2022-08-17T19:09:49.292Z,22.50
2022-08-17T19:13:12.518Z,22.42
2022-08-17T19:16:20.900Z,22.24
2022-08-17T19:19:28.912Z,22.05
2022-08-17T19:22:50.942Z,21.88
2022-08-17T19:25:59.159Z,21.71
2022-08-17T19:29:12.579Z,21.57
2022-08-17T19:32:18.843Z,21.50
2022-08-17T19:35:22.275Z,21.49
2022-08-17T19:38:35.026Z,21.48
2022-08-17T19:42:03.825Z,21.48
2022-08-17T19:45:45.289Z,21.40
2022-08-17T19:49:03.729Z,21.32
2022-08-17T19:52:30.233Z,21.26
2022-08-17T19:55:43.615Z,21.18
2022-08-17T19:59:01.129Z,21.09
2022-08-17T20:02:42.109Z,20.98
2022-08-17T20:06:11.928Z,20.85
2022-08-17T20:09:26.102Z,20.75
2022-08-17T20:12:38.250Z,20.65
2022-08-17T20:15:42.639Z,20.60
2022-08-17T20:18:55.579Z,20.52
2022-08-17T20:22:06.439Z,20.43
2022-08-17T20:25:13.811Z,20.46
2022-08-17T20:28:30.646Z,20.50
2022-08-17T20:31:40.290Z,20.45
2022-08-17T20:34:45.614Z,20.30
2022-08-17T20:38:08.303Z,20.03
2022-08-17T20:41:14.176Z,19.81
2022-08-17T20:44:31.907Z,19.77
2022-08-17T20:48:07.396Z,19.76
2022-08-17T20:51:18.574Z,19.78
2022-08-17T20:54:31.895Z,19.79
2022-08-17T20:57:33.621Z,19.74
2022-08-17T21:00:59.079Z,19.63
2022-08-17T21:04:07.249Z,19.51
2022-08-17T21:07:33.030Z,19.49
2022-08-17T21:10:47.070Z,19.59
2022-08-17T21:14:05.503Z,19.64
2022-08-17T21:17:17.832Z,19.66
2022-08-17T21:20:27.813Z,19.65
2022-08-17T21:24:04.714Z,19.69
2022-08-17T21:27:24.717Z,19.63
2022-08-17T21:30:29.425Z,19.47
2022-08-17T21:33:33.828Z,19.31
2022-08-17T21:36:35.513Z,19.27
2022-08-17T21:39:40.683Z,19.23
2022-08-17T21:42:48.426Z,19.21
2022-08-17T21:46:06.096Z,19.19
2022-08-17T21:49:13.783Z,19.24
2022-08-17T21:52:21.409Z,19.27
2022-08-17T21:55:29.275Z,19.29
2022-08-17T21:58:40.336Z,19.27
2022-08-17T22:01:43.056Z,19.22
2022-08-17T22:05:02.477Z,19.22
2022-08-17T22:08:16.808Z,19.24
2022-08-17T22:11:18.727Z,19.24
2022-08-17T22:14:51.513Z,19.19
2022-08-17T22:17:55.930Z,19.12
2022-08-17T22:20:59.455Z,18.83
2022-08-17T22:24:04.706Z,18.48
2022-08-17T22:27:11.722Z,18.40
2022-08-17T22:30:29.205Z,18.38
2022-08-17T22:33:46.597Z,18.38
2022-08-17T22:36:48.362Z,18.41
2022-08-17T22:39:58.989Z,18.41
2022-08-17T22:43:03.637Z,18.38
2022-08-17T22:46:07.977Z,18.43
2022-08-17T22:49:09.825Z,18.45
2022-08-17T23:05:13.057Z,18.37
2022-08-17T23:08:21.475Z,18.35
2022-08-17T23:11:36.902Z,18.29
2022-08-17T23:23:23.974Z,18.20
2022-08-17T23:26:27.891Z,18.18
2022-08-17T23:29:29.725Z,18.20
2022-08-17T23:32:31.598Z,18.24
2022-08-17T23:35:40.136Z,18.28
2022-08-17T23:38:46.701Z,18.32
2022-08-17T23:41:50.516Z,18.34
2022-08-17T23:44:53.228Z,18.34
2022-08-17T23:47:55.459Z,18.31
2022-08-17T23:50:57.381Z,18.29
2022-08-17T23:54:12.637Z,18.26
2022-08-17T23:57:17.815Z,18.05
